createdAt,value
2023-03-19T00:01:53.754Z,2.35
2023-03-19T00:04:39.457Z,2.45
2023-03-19T00:07:25.110Z,2.03
2023-03-19T00:10:11.027Z,2.08
2023-03-19T00:12:56.766Z,2.55
2023-03-19T00:15:42.437Z,2.35
2023-03-19T00:18:27.982Z,2.05
2023-03-19T00:21:14.140Z,2.63
2023-03-19T00:24:03.048Z,2.60
2023-03-19T00:26:48.482Z,2.10
2023-03-19T00:29:34.341Z,2.55
2023-03-19T00:32:20.027Z,2.90
2023-03-19T00:35:09.045Z,2.60
2023-03-19T00:37:55.372Z,3.42
2023-03-19T00:40:41.232Z,2.78
2023-03-19T00:43:27.199Z,2.25
2023-03-19T00:46:13.733Z,2.45
2023-03-19T00:49:02.204Z,3.17
2023-03-19T00:51:47.860Z,1.95
2023-03-19T00:54:33.599Z,2.83
2023-03-19T00:57:18.922Z,2.53
2023-03-19T01:00:05.133Z,2.95
2023-03-19T01:02:50.686Z,2.75
2023-03-19T01:08:21.937Z,2.58
2023-03-19T01:11:17.300Z,2.05
2023-03-19T01:14:03.566Z,2.08
2023-03-19T01:16:48.946Z,2.58
2023-03-19T01:19:34.219Z,2.88
2023-03-19T01:22:19.550Z,2.38
2023-03-19T01:25:13.825Z,2.10
2023-03-19T01:28:07.820Z,2.13
2023-03-19T01:31:06.799Z,2.17
2023-03-19T01:34:10.808Z,2.55
2023-03-19T01:37:07.621Z,2.67
2023-03-19T01:39:53.323Z,2.33
2023-03-19T01:43:18.650Z,2.38
2023-03-19T01:46:31.041Z,3.03
2023-03-19T01:49:37.858Z,2.38
2023-03-19T01:52:38.797Z,2.53
2023-03-19T01:55:42.351Z,2.55
2023-03-19T01:58:42.238Z,2.10
2023-03-19T02:02:30.677Z,1.90
2023-03-19T02:05:25.713Z,2.60
2023-03-19T02:08:16.811Z,2.22
2023-03-19T02:11:02.995Z,2.47
2023-03-19T02:13:48.775Z,3.38
2023-03-19T02:16:34.415Z,2.20
2023-03-19T02:19:35.972Z,2.38
2023-03-19T02:22:26.040Z,2.50
2023-03-19T02:25:24.790Z,2.03
2023-03-19T02:28:11.252Z,2.13
2023-03-19T02:30:57.286Z,1.65
2023-03-19T02:33:43.103Z,2.63
2023-03-19T02:36:37.320Z,2.10
2023-03-19T02:39:34.758Z,2.20
2023-03-19T02:42:22.615Z,2.00
2023-03-19T02:45:08.927Z,2.20
2023-03-19T02:47:54.534Z,2.63
2023-03-19T02:50:40.059Z,2.88
2023-03-19T02:53:26.249Z,2.13
2023-03-19T02:56:12.029Z,2.65
2023-03-19T02:58:57.429Z,2.10
2023-03-19T03:01:42.763Z,2.63
2023-03-19T03:04:29.336Z,2.42
2023-03-19T03:07:14.959Z,2.92
2023-03-19T03:10:00.372Z,2.55
2023-03-19T03:12:46.593Z,2.60
2023-03-19T03:15:32.006Z,2.85
2023-03-19T03:18:17.643Z,1.73
2023-03-19T03:21:03.880Z,2.00
2023-03-19T03:23:49.105Z,2.80
2023-03-19T03:26:36.168Z,2.50
2023-03-19T03:29:21.593Z,1.88
2023-03-19T03:32:07.446Z,1.83
2023-03-19T03:34:52.698Z,2.10
2023-03-19T03:37:38.225Z,2.42
2023-03-19T03:40:23.700Z,2.25
2023-03-19T03:43:10.214Z,3.00
2023-03-19T03:45:55.916Z,2.47
2023-03-19T03:48:41.697Z,2.17
2023-03-19T03:51:27.086Z,1.98
2023-03-19T03:54:12.451Z,1.42
2023-03-19T03:56:57.794Z,1.55
2023-03-19T03:59:43.789Z,1.92
2023-03-19T04:02:29.503Z,1.45
2023-03-19T04:05:15.897Z,2.13
2023-03-19T04:08:01.384Z,2.17
2023-03-19T04:10:46.686Z,1.70
2023-03-19T04:13:36.609Z,1.85
2023-03-19T04:16:22.671Z,2.03
2023-03-19T04:19:08.520Z,2.65
2023-03-19T04:21:54.637Z,2.10
2023-03-19T04:24:41.349Z,1.65
2023-03-19T04:27:26.791Z,1.83
2023-03-19T04:30:13.465Z,2.28
2023-03-19T04:32:59.960Z,1.90
2023-03-19T04:35:45.332Z,2.47
2023-03-19T04:38:31.192Z,2.15
2023-03-19T04:41:16.403Z,1.60
2023-03-19T04:44:14.836Z,1.65
2023-03-19T04:47:01.403Z,2.83
2023-03-19T04:49:51.552Z,2.05
2023-03-19T04:52:39.459Z,1.17
2023-03-19T04:55:25.037Z,2.83
2023-03-19T04:58:19.650Z,2.00
2023-03-19T05:01:12.793Z,2.17
2023-03-19T05:04:17.831Z,2.22
2023-03-19T05:07:04.277Z,2.13
2023-03-19T05:09:50.129Z,2.40
2023-03-19T05:12:36.917Z,1.67
2023-03-19T05:15:24.221Z,2.08
2023-03-19T05:18:17.617Z,2.83
2023-03-19T05:21:04.905Z,1.90
2023-03-19T05:23:52.817Z,1.83
2023-03-19T05:26:40.023Z,1.67
2023-03-19T05:29:44.149Z,1.30
2023-03-19T05:32:40.902Z,1.85
2023-03-19T05:35:33.356Z,1.80
2023-03-19T05:38:20.738Z,1.45
2023-03-19T05:41:13.565Z,2.15
2023-03-19T05:44:07.568Z,1.92
2023-03-19T05:47:12.357Z,2.03
2023-03-19T05:50:03.178Z,1.23
2023-03-19T05:52:50.176Z,1.38
2023-03-19T05:55:35.486Z,1.95
2023-03-19T05:58:26.671Z,1.83
2023-03-19T06:01:13.001Z,1.80
2023-03-19T06:03:58.613Z,1.77
2023-03-19T06:06:44.092Z,2.00
2023-03-19T06:09:30.465Z,1.80
2023-03-19T06:12:16.557Z,2.00
2023-03-19T06:15:02.012Z,2.25
2023-03-19T06:18:19.283Z,1.98
2023-03-19T06:21:06.049Z,1.80
2023-03-19T06:23:51.449Z,2.08
2023-03-19T06:26:42.740Z,2.72
2023-03-19T06:29:33.588Z,2.25
2023-03-19T06:32:32.763Z,2.00
2023-03-19T06:35:24.295Z,1.83
2023-03-19T06:38:11.215Z,1.90
2023-03-19T06:40:56.567Z,1.88
2023-03-19T06:43:42.391Z,2.15
2023-03-19T06:46:27.746Z,1.73
2023-03-19T06:49:13.136Z,2.55
2023-03-19T06:51:58.436Z,1.90
2023-03-19T06:54:43.914Z,2.08
2023-03-19T06:57:29.378Z,2.20
2023-03-19T07:00:15.343Z,2.08
2023-03-19T07:03:01.136Z,1.67
2023-03-19T07:05:50.522Z,1.75
2023-03-19T07:08:35.904Z,2.10
2023-03-19T07:11:21.491Z,1.52
2023-03-19T07:14:07.126Z,1.58
2023-03-19T07:16:52.571Z,2.35
2023-03-19T07:19:38.087Z,1.40
2023-03-19T07:22:23.451Z,2.60
2023-03-19T07:25:09.402Z,1.98
2023-03-19T07:27:56.069Z,1.88
2023-03-19T07:30:41.699Z,1.77
2023-03-19T07:33:27.044Z,2.05
2023-03-19T07:36:12.384Z,2.40
2023-03-19T07:38:58.209Z,1.60
2023-03-19T07:41:44.959Z,1.85
2023-03-19T07:44:33.432Z,1.90
2023-03-19T07:47:28.525Z,1.80
2023-03-19T07:50:14.416Z,1.83
2023-03-19T07:53:00.085Z,1.77
2023-03-19T07:55:45.387Z,1.20
2023-03-19T07:58:31.096Z,2.85
2023-03-19T08:01:16.509Z,1.75
2023-03-19T08:04:02.332Z,2.17
2023-03-19T08:06:48.138Z,1.60
2023-03-19T08:09:34.145Z,2.47
2023-03-19T08:12:19.728Z,1.23
2023-03-19T08:15:05.933Z,1.88
2023-03-19T08:17:58.459Z,2.05
2023-03-19T08:20:47.895Z,2.13
2023-03-19T08:23:33.793Z,1.48
2023-03-19T08:26:19.730Z,1.85
2023-03-19T08:29:06.696Z,1.70
2023-03-19T08:31:52.793Z,2.15
2023-03-19T08:34:38.139Z,1.45
2023-03-19T08:37:23.329Z,1.02
2023-03-19T08:40:09.828Z,1.73
2023-03-19T08:42:56.147Z,1.42
2023-03-19T08:45:41.986Z,1.45
2023-03-19T08:48:28.459Z,1.95
2023-03-19T08:51:14.035Z,1.42
2023-03-19T08:53:59.278Z,1.73
2023-03-19T08:56:44.644Z,0.93
2023-03-19T08:59:33.357Z,1.95
2023-03-19T09:02:19.244Z,1.27
2023-03-19T09:05:04.712Z,1.33
2023-03-19T09:07:53.032Z,1.35
2023-03-19T09:10:39.145Z,1.15
2023-03-19T09:13:25.638Z,2.30
2023-03-19T09:16:11.030Z,2.03
2023-03-19T09:18:59.294Z,1.45
2023-03-19T09:21:45.783Z,1.45
2023-03-19T09:24:31.332Z,1.63
2023-03-19T09:27:16.962Z,1.48
2023-03-19T09:30:02.698Z,2.00
2023-03-19T09:32:48.362Z,1.42
2023-03-19T09:35:34.511Z,1.15
2023-03-19T09:38:21.879Z,1.52
2023-03-19T09:41:10.550Z,1.25
2023-03-19T09:43:58.616Z,1.05
2023-03-19T09:46:53.799Z,1.20
2023-03-19T09:49:44.581Z,1.48
2023-03-19T09:53:12.963Z,1.73
2023-03-19T09:56:00.469Z,1.50
2023-03-19T09:58:46.840Z,1.48
2023-03-19T10:01:38.680Z,1.45
2023-03-19T10:04:42.644Z,1.55
2023-03-19T10:07:31.216Z,1.33
2023-03-19T10:10:36.772Z,1.30
2023-03-19T10:13:37.952Z,1.58
2023-03-19T10:16:27.515Z,1.50
2023-03-19T10:19:22.217Z,1.15
2023-03-19T10:22:15.875Z,1.58
2023-03-19T10:25:02.993Z,0.73
2023-03-19T10:27:56.909Z,1.20
2023-03-19T10:30:45.934Z,1.20
2023-03-19T10:34:12.323Z,1.42
2023-03-19T10:37:13.771Z,1.20
2023-03-19T10:40:01.049Z,1.52
2023-03-19T10:43:11.240Z,1.23
2023-03-19T10:45:57.715Z,1.98
2023-03-19T10:48:45.889Z,1.40
2023-03-19T10:51:31.657Z,1.17
2023-03-19T10:54:28.180Z,1.20
2023-03-19T10:57:25.412Z,2.83
2023-03-19T11:00:24.662Z,1.27
2023-03-19T11:03:28.968Z,1.25
2023-03-19T11:06:25.283Z,1.50
2023-03-19T11:09:11.237Z,1.08
2023-03-19T11:12:23.220Z,1.70
2023-03-19T11:15:23.558Z,0.87
2023-03-19T11:18:19.941Z,1.13
2023-03-19T11:21:22.590Z,1.50
2023-03-19T11:24:12.875Z,1.58
2023-03-19T11:26:58.617Z,1.25
2023-03-19T11:29:46.238Z,1.13
2023-03-19T11:32:53.680Z,1.23
2023-03-19T11:36:16.893Z,0.95
2023-03-19T11:39:12.236Z,0.85
2023-03-19T11:42:16.534Z,0.95
2023-03-19T11:45:23.147Z,1.52
2023-03-19T11:48:17.455Z,1.25
2023-03-19T11:51:17.732Z,1.05
2023-03-19T11:54:17.426Z,1.05
2023-03-19T11:57:12.817Z,1.13
2023-03-19T12:00:10.883Z,1.60
2023-03-19T12:03:32.639Z,1.20
2023-03-19T12:06:42.139Z,1.42
2023-03-19T12:09:46.328Z,1.23
2023-03-19T12:12:41.517Z,1.00
2023-03-19T12:15:42.243Z,1.23
2023-03-19T12:18:55.257Z,0.93
2023-03-19T12:21:59.448Z,1.15
2023-03-19T12:25:09.326Z,0.93
2023-03-19T12:27:57.628Z,0.93
2023-03-19T12:30:50.445Z,0.75
2023-03-19T12:33:46.790Z,0.60
2023-03-19T12:36:38.978Z,1.48
2023-03-19T12:39:35.793Z,1.05
2023-03-19T12:42:22.472Z,0.85
2023-03-19T12:45:21.481Z,1.02
2023-03-19T12:48:59.525Z,1.52
2023-03-19T12:51:50.668Z,0.93
2023-03-19T12:54:41.870Z,1.15
2023-03-19T12:58:11.565Z,1.42
2023-03-19T13:01:08.993Z,0.68
2023-03-19T13:03:59.714Z,0.93
2023-03-19T13:06:54.390Z,1.05
2023-03-19T13:09:58.034Z,1.40
2023-03-19T13:12:44.809Z,1.40
2023-03-19T13:15:42.388Z,1.30
2023-03-19T13:18:47.111Z,0.77
2023-03-19T13:21:36.095Z,1.23
2023-03-19T13:24:24.001Z,1.33
2023-03-19T13:27:14.373Z,1.83
2023-03-19T13:30:12.212Z,1.48
2023-03-19T13:33:13.800Z,1.10
2023-03-19T13:36:05.434Z,1.67
2023-03-19T13:38:51.715Z,1.05
2023-03-19T13:41:39.198Z,1.65
2023-03-19T13:44:30.869Z,1.70
2023-03-19T13:47:37.698Z,1.63
2023-03-19T13:50:24.996Z,1.60
2023-03-19T13:53:39.464Z,1.10
2023-03-19T13:56:30.222Z,1.58
2023-03-19T13:59:45.132Z,1.60
2023-03-19T14:02:30.897Z,1.50
2023-03-19T14:05:18.002Z,1.52
2023-03-19T14:08:19.605Z,2.38
2023-03-19T14:11:06.006Z,1.77
2023-03-19T14:13:54.031Z,2.03
2023-03-19T14:16:46.608Z,1.63
2023-03-19T14:19:41.620Z,1.58
2023-03-19T14:22:37.830Z,2.20
2023-03-19T14:25:29.270Z,1.90
2023-03-19T14:28:18.680Z,1.58
2023-03-19T14:31:05.781Z,1.77
2023-03-19T14:33:58.544Z,1.70
2023-03-19T14:37:25.175Z,2.03
2023-03-19T14:40:31.942Z,2.08
2023-03-19T14:43:45.021Z,1.30
2023-03-19T14:46:30.489Z,1.70
2023-03-19T14:49:40.339Z,1.35
2023-03-19T14:52:29.041Z,1.20
2023-03-19T14:55:17.483Z,1.30
2023-03-19T14:58:03.647Z,2.00
2023-03-19T15:00:51.763Z,1.85
2023-03-19T15:03:38.445Z,2.20
2023-03-19T15:06:25.064Z,2.30
2023-03-19T15:09:32.352Z,5.63
2023-03-19T15:12:33.910Z,2.70
2023-03-19T15:15:19.137Z,3.40
2023-03-19T15:18:12.767Z,2.83
2023-03-19T15:20:58.932Z,2.42
2023-03-19T15:23:47.952Z,6.45
2023-03-19T15:26:37.609Z,6.93
2023-03-19T15:29:33.572Z,2.50
2023-03-19T15:33:04.561Z,3.33
2023-03-19T15:35:49.139Z,2.35
2023-03-19T15:38:46.601Z,3.70
2023-03-19T15:41:36.011Z,5.82
2023-03-19T15:44:29.295Z,4.20
2023-03-19T15:47:20.298Z,3.88
2023-03-19T15:50:09.088Z,2.63
2023-03-19T15:53:00.833Z,7.75
2023-03-19T15:55:49.845Z,3.88
2023-03-19T15:58:42.571Z,7.00
2023-03-19T16:04:20.988Z,7.53
2023-03-19T16:07:06.924Z,17.48
2023-03-19T16:09:53.428Z,12.60
2023-03-19T16:12:40.966Z,13.05
2023-03-19T16:15:39.388Z,5.90
2023-03-19T16:18:26.191Z,6.88
2023-03-19T16:21:20.857Z,5.65
2023-03-19T16:24:24.267Z,11.35
2023-03-19T16:27:16.925Z,10.50
2023-03-19T16:30:02.349Z,9.07
2023-03-19T16:33:02.369Z,9.55
2023-03-19T16:35:48.067Z,11.63
2023-03-19T16:38:44.565Z,16.75
2023-03-19T16:41:32.515Z,11.90
2023-03-19T16:44:19.142Z,8.15
2023-03-19T16:47:13.123Z,7.80
2023-03-19T16:49:58.499Z,8.05
2023-03-19T16:52:45.832Z,8.00
2023-03-19T16:55:34.486Z,9.43
2023-03-19T16:58:31.719Z,10.25
2023-03-19T17:01:23.257Z,8.90
2023-03-19T17:04:17.696Z,9.07
2023-03-19T17:07:03.421Z,5.30
2023-03-19T17:09:49.063Z,4.90
2023-03-19T17:12:34.993Z,4.57
2023-03-19T17:15:29.513Z,4.85
2023-03-19T17:18:28.559Z,4.70
2023-03-19T17:21:17.588Z,5.72
2023-03-19T17:24:23.297Z,7.90
2023-03-19T17:27:09.997Z,11.57
2023-03-19T17:29:55.652Z,12.75
2023-03-19T17:32:46.585Z,11.65
2023-03-19T17:35:32.179Z,10.75
2023-03-19T17:38:18.707Z,7.85
2023-03-19T17:41:32.954Z,6.80
2023-03-19T17:44:18.514Z,5.68
2023-03-19T17:47:03.976Z,7.45
2023-03-19T17:49:49.874Z,7.95
2023-03-19T17:52:36.391Z,7.75
2023-03-19T17:55:29.937Z,5.88
2023-03-19T17:58:21.230Z,5.72
2023-03-19T18:01:22.961Z,6.55
2023-03-19T18:04:13.515Z,6.93
2023-03-19T18:06:59.026Z,6.55
2023-03-19T18:09:44.616Z,7.05
2023-03-19T18:12:30.264Z,7.25
2023-03-19T18:15:16.735Z,12.85
2023-03-19T18:18:04.919Z,9.70
2023-03-19T18:20:50.557Z,10.18
2023-03-19T18:23:36.219Z,10.60
2023-03-19T18:26:21.543Z,9.15
2023-03-19T18:29:07.031Z,6.82
2023-03-19T18:31:52.518Z,7.32
2023-03-19T18:34:38.276Z,11.05
2023-03-19T18:37:24.297Z,8.60
2023-03-19T18:40:15.063Z,10.50
2023-03-19T18:43:01.904Z,10.13
2023-03-19T18:45:51.326Z,8.70
2023-03-19T18:48:36.596Z,9.43
2023-03-19T18:51:22.082Z,12.35
2023-03-19T18:54:10.907Z,15.77
2023-03-19T18:56:57.604Z,11.77
2023-03-19T18:59:42.794Z,9.27
2023-03-19T19:02:34.220Z,11.13
2023-03-19T19:05:27.606Z,11.77
2023-03-19T19:08:18.602Z,11.02
2023-03-19T19:11:06.539Z,33.90
2023-03-19T19:13:57.283Z,25.17
2023-03-19T19:16:42.955Z,13.73
2023-03-19T19:19:28.670Z,19.10
2023-03-19T19:22:19.058Z,15.15
2023-03-19T19:25:04.560Z,18.27
2023-03-19T19:27:58.669Z,22.15
2023-03-19T19:30:44.593Z,22.98
2023-03-19T19:33:37.505Z,20.50
2023-03-19T19:36:24.468Z,13.38
2023-03-19T19:39:10.662Z,8.40
2023-03-19T19:41:56.618Z,2.33
2023-03-19T19:44:42.765Z,1.67
2023-03-19T19:47:28.271Z,2.03
2023-03-19T19:50:18.530Z,1.40
2023-03-19T19:53:04.426Z,1.05
2023-03-19T19:55:50.013Z,1.75
2023-03-19T19:58:37.021Z,1.30
2023-03-19T20:01:25.338Z,6.47
2023-03-19T20:04:14.825Z,12.77
2023-03-19T20:07:00.465Z,51.60
2023-03-19T20:09:46.707Z,26.70
2023-03-19T20:12:33.411Z,13.90
2023-03-19T20:15:27.604Z,26.73
2023-03-19T20:18:17.595Z,22.05
2023-03-19T20:21:04.305Z,11.00
2023-03-19T20:23:53.216Z,49.00
2023-03-19T20:26:39.020Z,22.85
2023-03-19T20:29:24.508Z,12.68
2023-03-19T20:32:33.474Z,23.80
2023-03-19T20:35:24.936Z,8.57
2023-03-19T20:38:11.786Z,19.85
2023-03-19T20:40:59.035Z,31.58
2023-03-19T20:43:44.656Z,10.15
2023-03-19T20:46:30.441Z,17.75
2023-03-19T20:49:15.858Z,4.47
2023-03-19T20:52:01.172Z,9.73
2023-03-19T20:54:46.518Z,8.02
2023-03-19T20:57:32.308Z,9.40
2023-03-19T21:00:24.805Z,5.32
2023-03-19T21:03:23.587Z,3.35
2023-03-19T21:06:20.001Z,9.43
2023-03-19T21:09:05.786Z,5.60
2023-03-19T21:11:52.267Z,7.20
2023-03-19T21:14:37.807Z,5.10
2023-03-19T21:17:23.815Z,7.22
2023-03-19T21:20:17.547Z,3.13
2023-03-19T21:23:07.692Z,1.80
2023-03-19T21:25:53.194Z,1.52
2023-03-19T21:28:40.156Z,1.50
2023-03-19T21:31:27.106Z,3.22
2023-03-19T21:34:14.871Z,1.75
2023-03-19T21:37:00.841Z,2.22
2023-03-19T21:39:47.647Z,1.75
2023-03-19T21:42:34.100Z,2.60
2023-03-19T21:45:32.612Z,2.10
2023-03-19T21:48:29.381Z,2.40
2023-03-19T21:51:16.605Z,2.47
2023-03-19T21:54:02.738Z,2.60
2023-03-19T21:56:48.364Z,0.98
2023-03-19T21:59:33.868Z,1.85
2023-03-19T22:02:23.257Z,3.25
2023-03-19T22:05:29.074Z,3.75
2023-03-19T22:08:16.183Z,1.55
2023-03-19T22:11:02.700Z,2.75
2023-03-19T22:13:48.638Z,4.35
2023-03-19T22:16:34.179Z,2.08
2023-03-19T22:19:19.433Z,1.83
2023-03-19T22:22:04.809Z,3.63
2023-03-19T22:24:50.301Z,3.10
2023-03-19T22:27:35.946Z,2.80
2023-03-19T22:30:24.857Z,2.78
2023-03-19T22:33:28.581Z,1.98
2023-03-19T22:36:15.077Z,1.88
2023-03-19T22:39:00.459Z,1.58
2023-03-19T22:41:48.443Z,1.88
2023-03-19T22:44:34.042Z,1.42
2023-03-19T22:47:22.688Z,1.40
2023-03-19T22:50:17.585Z,1.20
2023-03-19T22:53:03.224Z,1.33
2023-03-19T22:55:49.267Z,1.25
2023-03-19T22:58:34.510Z,1.70
2023-03-19T23:01:23.781Z,1.20
2023-03-19T23:04:31.231Z,1.27
2023-03-19T23:07:16.700Z,1.83
2023-03-19T23:10:02.722Z,1.77
2023-03-19T23:12:48.424Z,1.70
2023-03-19T23:15:34.754Z,1.63
2023-03-19T23:18:25.924Z,1.50
2023-03-19T23:21:14.910Z,1.92
2023-03-19T23:24:02.460Z,1.70
2023-03-19T23:26:50.614Z,1.35
2023-03-19T23:29:44.572Z,1.23
2023-03-19T23:32:30.129Z,1.42
2023-03-19T23:35:21.356Z,1.50
2023-03-19T23:38:07.224Z,2.13
2023-03-19T23:40:54.053Z,2.13
2023-03-19T23:43:39.484Z,1.80
2023-03-19T23:46:24.962Z,1.20
2023-03-19T23:49:15.438Z,1.52
2023-03-19T23:52:03.654Z,2.33
2023-03-19T23:54:48.977Z,1.70
2023-03-19T23:57:37.780Z,1.80
